sensor_id;sensor_type;location;lat;lon;timestamp;temperature;humidity
15357;DHT22;7778;48.792;9.260;2023-04-01T00:02:21;8.60;99.90
15357;DHT22;7778;48.792;9.260;2023-04-01T00:05:07;8.60;99.90
15357;DHT22;7778;48.792;9.260;2023-04-01T00:07:54;8.60;99.90
15357;DHT22;7778;48.792;9.260;2023-04-01T00:10:41;8.60;99.90
15357;DHT22;7778;48.792;9.260;2023-04-01T00:13:27;8.60;99.90
15357;DHT22;7778;48.792;9.260;2023-04-01T00:16:14;8.70;99.90
15357;DHT22;7778;48.792;9.260;2023-04-01T00:18:59;8.60;99.90
15357;DHT22;7778;48.792;9.260;2023-04-01T00:21:45;8.80;99.90
15357;DHT22;7778;48.792;9.260;2023-04-01T00:24:31;8.80;99.90
15357;DHT22;7778;48.792;9.260;2023-04-01T00:27:19;8.80;99.90
15357;DHT22;7778;48.792;9.260;2023-04-01T00:30:06;8.80;99.90
15357;DHT22;7778;48.792;9.260;2023-04-01T00:32:53;8.90;99.90
15357;DHT22;7778;48.792;9.260;2023-04-01T00:35:39;8.80;99.90
15357;DHT22;7778;48.792;9.260;2023-04-01T00:38:26;8.80;99.90
15357;DHT22;7778;48.792;9.260;2023-04-01T00:41:13;8.70;99.90
15357;DHT22;7778;48.792;9.260;2023-04-01T00:44:18;8.70;99.90
15357;DHT22;7778;48.792;9.260;2023-04-01T00:47:05;8.60;99.90
15357;DHT22;7778;48.792;9.260;2023-04-01T00:49:52;8.60;99.90
15357;DHT22;7778;48.792;9.260;2023-04-01T00:52:40;8.60;99.90
15357;DHT22;7778;48.792;9.260;2023-04-01T00:55:28;8.60;99.90
15357;DHT22;7778;48.792;9.260;2023-04-01T00:58:18;8.80;99.90
15357;DHT22;7778;48.792;9.260;2023-04-01T01:01:08;8.80;99.90
15357;DHT22;7778;48.792;9.260;2023-04-01T01:03:55;8.70;99.90
15357;DHT22;7778;48.792;9.260;2023-04-01T01:06:46;8.70;99.90
15357;DHT22;7778;48.792;9.260;2023-04-01T01:09:43;8.80;99.90
15357;DHT22;7778;48.792;9.260;2023-04-01T01:12:35;8.80;99.90
15357;DHT22;7778;48.792;9.260;2023-04-01T01:15:28;8.80;99.90
15357;DHT22;7778;48.792;9.260;2023-04-01T01:18:21;8.80;99.90
15357;DHT22;7778;48.792;9.260;2023-04-01T01:24:42;8.70;99.90
15357;DHT22;7778;48.792;9.260;2023-04-01T01:27:38;8.90;99.90
15357;DHT22;7778;48.792;9.260;2023-04-01T01:30:36;8.70;99.90
15357;DHT22;7778;48.792;9.260;2023-04-01T01:33:42;8.80;99.90
15357;DHT22;7778;48.792;9.260;2023-04-01T01:36:38;8.80;99.90
15357;DHT22;7778;48.792;9.260;2023-04-01T01:39:29;8.80;99.90
15357;DHT22;7778;48.792;9.260;2023-04-01T01:42:18;9.00;99.90
15357;DHT22;7778;48.792;9.260;2023-04-01T01:45:06;8.80;99.90
15357;DHT22;7778;48.792;9.260;2023-04-01T01:47:55;8.80;99.90
15357;DHT22;7778;48.792;9.260;2023-04-01T01:50:43;8.80;99.90
15357;DHT22;7778;48.792;9.260;2023-04-01T01:53:31;8.90;99.90
15357;DHT22;7778;48.792;9.260;2023-04-01T01:56:18;9.00;99.90
15357;DHT22;7778;48.792;9.260;2023-04-01T01:59:09;8.90;99.90
15357;DHT22;7778;48.792;9.260;2023-04-01T02:01:57;8.80;99.90
15357;DHT22;7778;48.792;9.260;2023-04-01T02:04:44;8.80;99.90
15357;DHT22;7778;48.792;9.260;2023-04-01T02:07:33;8.70;99.90
15357;DHT22;7778;48.792;9.260;2023-04-01T02:10:25;8.70;99.90
15357;DHT22;7778;48.792;9.260;2023-04-01T02:13:15;8.70;99.90
15357;DHT22;7778;48.792;9.260;2023-04-01T02:16:07;8.70;99.90
15357;DHT22;7778;48.792;9.260;2023-04-01T02:18:58;8.70;99.90
15357;DHT22;7778;48.792;9.260;2023-04-01T02:21:45;8.60;99.90
15357;DHT22;7778;48.792;9.260;2023-04-01T02:24:33;8.70;99.90
15357;DHT22;7778;48.792;9.260;2023-04-01T02:27:22;8.70;99.90
15357;DHT22;7778;48.792;9.260;2023-04-01T02:30:08;8.60;99.90
15357;DHT22;7778;48.792;9.260;2023-04-01T02:32:55;8.70;99.90
15357;DHT22;7778;48.792;9.260;2023-04-01T02:35:41;8.80;99.90
15357;DHT22;7778;48.792;9.260;2023-04-01T02:38:27;8.60;99.90
15357;DHT22;7778;48.792;9.260;2023-04-01T02:41:13;8.60;99.90
15357;DHT22;7778;48.792;9.260;2023-04-01T02:44:00;8.60;99.90
15357;DHT22;7778;48.792;9.260;2023-04-01T02:46:47;8.50;99.90
15357;DHT22;7778;48.792;9.260;2023-04-01T02:49:32;8.50;99.90
15357;DHT22;7778;48.792;9.260;2023-04-01T02:52:18;8.40;99.90
15357;DHT22;7778;48.792;9.260;2023-04-01T02:55:05;8.50;99.90
15357;DHT22;7778;48.792;9.260;2023-04-01T02:57:51;8.30;99.90
15357;DHT22;7778;48.792;9.260;2023-04-01T03:00:38;8.30;99.90
15357;DHT22;7778;48.792;9.260;2023-04-01T03:03:24;8.20;99.90
15357;DHT22;7778;48.792;9.260;2023-04-01T03:06:11;8.20;99.90
15357;DHT22;7778;48.792;9.260;2023-04-01T03:08:58;8.30;99.90
15357;DHT22;7778;48.792;9.260;2023-04-01T03:11:44;8.20;99.90
15357;DHT22;7778;48.792;9.260;2023-04-01T03:14:29;8.20;99.90
15357;DHT22;7778;48.792;9.260;2023-04-01T03:17:16;8.20;99.90
15357;DHT22;7778;48.792;9.260;2023-04-01T03:20:02;8.30;99.90
15357;DHT22;7778;48.792;9.260;2023-04-01T03:22:49;8.30;99.90
15357;DHT22;7778;48.792;9.260;2023-04-01T03:25:35;8.30;99.90
15357;DHT22;7778;48.792;9.260;2023-04-01T03:28:20;8.20;99.90
15357;DHT22;7778;48.792;9.260;2023-04-01T03:31:06;8.20;99.90
15357;DHT22;7778;48.792;9.260;2023-04-01T03:33:53;8.20;99.90
15357;DHT22;7778;48.792;9.260;2023-04-01T03:36:39;8.20;99.90
15357;DHT22;7778;48.792;9.260;2023-04-01T03:39:24;8.10;99.90
15357;DHT22;7778;48.792;9.260;2023-04-01T03:42:10;8.10;99.90
15357;DHT22;7778;48.792;9.260;2023-04-01T03:44:55;8.10;99.90
15357;DHT22;7778;48.792;9.260;2023-04-01T03:47:41;8.10;99.90
15357;DHT22;7778;48.792;9.260;2023-04-01T03:50:28;8.20;99.90
15357;DHT22;7778;48.792;9.260;2023-04-01T03:53:13;8.30;99.90
15357;DHT22;7778;48.792;9.260;2023-04-01T03:56:04;8.30;99.90
15357;DHT22;7778;48.792;9.260;2023-04-01T03:58:50;8.20;99.90
15357;DHT22;7778;48.792;9.260;2023-04-01T04:01:35;8.40;99.90
15357;DHT22;7778;48.792;9.260;2023-04-01T04:04:21;8.30;99.90
15357;DHT22;7778;48.792;9.260;2023-04-01T04:07:08;8.10;99.90
15357;DHT22;7778;48.792;9.260;2023-04-01T04:09:53;8.10;99.90
15357;DHT22;7778;48.792;9.260;2023-04-01T04:12:39;8.00;99.90
15357;DHT22;7778;48.792;9.260;2023-04-01T04:15:25;8.00;99.90
15357;DHT22;7778;48.792;9.260;2023-04-01T04:18:10;7.90;99.90
15357;DHT22;7778;48.792;9.260;2023-04-01T04:20:56;7.90;99.90
15357;DHT22;7778;48.792;9.260;2023-04-01T04:23:43;7.90;99.90
15357;DHT22;7778;48.792;9.260;2023-04-01T04:26:28;7.90;99.90
15357;DHT22;7778;48.792;9.260;2023-04-01T04:29:14;7.90;99.90
15357;DHT22;7778;48.792;9.260;2023-04-01T04:32:00;8.00;99.90
15357;DHT22;7778;48.792;9.260;2023-04-01T04:34:45;7.80;99.90
15357;DHT22;7778;48.792;9.260;2023-04-01T04:37:31;7.70;99.90
15357;DHT22;7778;48.792;9.260;2023-04-01T04:40:18;7.70;99.90
15357;DHT22;7778;48.792;9.260;2023-04-01T04:43:04;7.60;99.90
15357;DHT22;7778;48.792;9.260;2023-04-01T04:45:50;7.70;99.90
15357;DHT22;7778;48.792;9.260;2023-04-01T04:48:36;7.60;99.90
15357;DHT22;7778;48.792;9.260;2023-04-01T04:51:22;7.60;99.90
15357;DHT22;7778;48.792;9.260;2023-04-01T04:54:08;7.70;99.90
15357;DHT22;7778;48.792;9.260;2023-04-01T04:56:56;7.60;99.90
15357;DHT22;7778;48.792;9.260;2023-04-01T04:59:42;7.60;99.90
15357;DHT22;7778;48.792;9.260;2023-04-01T05:02:28;7.70;99.90
15357;DHT22;7778;48.792;9.260;2023-04-01T05:05:14;7.70;99.90
15357;DHT22;7778;48.792;9.260;2023-04-01T05:08:00;7.70;99.90
15357;DHT22;7778;48.792;9.260;2023-04-01T05:10:46;7.70;99.90
15357;DHT22;7778;48.792;9.260;2023-04-01T05:13:33;7.70;99.90
15357;DHT22;7778;48.792;9.260;2023-04-01T05:16:20;7.70;99.90
15357;DHT22;7778;48.792;9.260;2023-04-01T05:19:05;7.60;99.90
15357;DHT22;7778;48.792;9.260;2023-04-01T05:21:51;7.70;99.90
15357;DHT22;7778;48.792;9.260;2023-04-01T05:24:37;7.80;99.90
15357;DHT22;7778;48.792;9.260;2023-04-01T05:27:23;7.80;99.90
15357;DHT22;7778;48.792;9.260;2023-04-01T05:30:11;7.80;99.90
15357;DHT22;7778;48.792;9.260;2023-04-01T05:32:57;7.80;99.90
15357;DHT22;7778;48.792;9.260;2023-04-01T05:35:42;7.80;99.90
15357;DHT22;7778;48.792;9.260;2023-04-01T05:38:28;7.90;99.90
15357;DHT22;7778;48.792;9.260;2023-04-01T05:41:14;8.00;99.90
15357;DHT22;7778;48.792;9.260;2023-04-01T05:44:00;8.00;99.90
15357;DHT22;7778;48.792;9.260;2023-04-01T05:46:47;8.00;99.90
15357;DHT22;7778;48.792;9.260;2023-04-01T05:49:33;8.10;99.90
15357;DHT22;7778;48.792;9.260;2023-04-01T05:52:19;8.20;99.90
15357;DHT22;7778;48.792;9.260;2023-04-01T05:55:05;8.40;99.90
15357;DHT22;7778;48.792;9.260;2023-04-01T05:57:51;8.40;99.90
15357;DHT22;7778;48.792;9.260;2023-04-01T06:00:38;8.80;99.90
15357;DHT22;7778;48.792;9.260;2023-04-01T06:03:25;8.70;99.90
15357;DHT22;7778;48.792;9.260;2023-04-01T06:06:14;8.70;99.90
15357;DHT22;7778;48.792;9.260;2023-04-01T06:09:10;8.80;99.90
15357;DHT22;7778;48.792;9.260;2023-04-01T06:15:29;8.90;99.90
15357;DHT22;7778;48.792;9.260;2023-04-01T06:18:40;9.00;99.90
15357;DHT22;7778;48.792;9.260;2023-04-01T06:21:47;9.10;99.90
15357;DHT22;7778;48.792;9.260;2023-04-01T06:24:50;9.30;99.90
15357;DHT22;7778;48.792;9.260;2023-04-01T06:27:58;9.50;99.90
15357;DHT22;7778;48.792;9.260;2023-04-01T06:30:54;9.70;99.90
15357;DHT22;7778;48.792;9.260;2023-04-01T06:33:59;9.70;99.90
15357;DHT22;7778;48.792;9.260;2023-04-01T06:37:10;9.80;99.90
15357;DHT22;7778;48.792;9.260;2023-04-01T06:40:29;9.80;99.90
15357;DHT22;7778;48.792;9.260;2023-04-01T06:43:31;9.80;99.90
15357;DHT22;7778;48.792;9.260;2023-04-01T06:46:31;9.80;99.90
15357;DHT22;7778;48.792;9.260;2023-04-01T06:49:33;9.70;99.90
15357;DHT22;7778;48.792;9.260;2023-04-01T06:52:33;9.60;99.90
15357;DHT22;7778;48.792;9.260;2023-04-01T06:55:28;9.50;99.90
15357;DHT22;7778;48.792;9.260;2023-04-01T06:58:20;9.50;99.90
15357;DHT22;7778;48.792;9.260;2023-04-01T07:01:09;9.50;99.90
15357;DHT22;7778;48.792;9.260;2023-04-01T07:04:00;9.70;99.90
15357;DHT22;7778;48.792;9.260;2023-04-01T07:06:51;9.60;99.90
15357;DHT22;7778;48.792;9.260;2023-04-01T07:09:41;9.60;99.90
15357;DHT22;7778;48.792;9.260;2023-04-01T07:12:38;9.70;99.90
15357;DHT22;7778;48.792;9.260;2023-04-01T07:15:32;9.80;99.90
15357;DHT22;7778;48.792;9.260;2023-04-01T07:18:25;9.90;99.90
15357;DHT22;7778;48.792;9.260;2023-04-01T07:21:23;10.00;99.90
15357;DHT22;7778;48.792;9.260;2023-04-01T07:24:16;10.00;99.90
15357;DHT22;7778;48.792;9.260;2023-04-01T07:27:10;10.10;99.90
15357;DHT22;7778;48.792;9.260;2023-04-01T07:29:57;10.00;99.90
15357;DHT22;7778;48.792;9.260;2023-04-01T07:32:47;10.20;99.90
15357;DHT22;7778;48.792;9.260;2023-04-01T07:35:39;9.90;99.90
15357;DHT22;7778;48.792;9.260;2023-04-01T07:38:34;9.90;99.90
15357;DHT22;7778;48.792;9.260;2023-04-01T07:41:32;9.90;99.90
15357;DHT22;7778;48.792;9.260;2023-04-01T07:44:32;9.90;99.90
15357;DHT22;7778;48.792;9.260;2023-04-01T07:47:45;9.90;99.90
15357;DHT22;7778;48.792;9.260;2023-04-01T07:50:48;9.80;99.90
15357;DHT22;7778;48.792;9.260;2023-04-01T07:53:42;9.80;99.90
15357;DHT22;7778;48.792;9.260;2023-04-01T07:56:39;9.80;99.90
15357;DHT22;7778;48.792;9.260;2023-04-01T07:59:30;9.90;99.90
15357;DHT22;7778;48.792;9.260;2023-04-01T08:02:34;9.90;99.90
15357;DHT22;7778;48.792;9.260;2023-04-01T08:05:32;10.00;99.90
15357;DHT22;7778;48.792;9.260;2023-04-01T08:08:33;10.00;99.90
15357;DHT22;7778;48.792;9.260;2023-04-01T08:11:37;10.20;99.90
15357;DHT22;7778;48.792;9.260;2023-04-01T08:14:35;10.30;99.90
15357;DHT22;7778;48.792;9.260;2023-04-01T08:17:30;10.20;99.90
15357;DHT22;7778;48.792;9.260;2023-04-01T08:20:26;10.30;99.90
15357;DHT22;7778;48.792;9.260;2023-04-01T08:23:16;10.30;99.90
15357;DHT22;7778;48.792;9.260;2023-04-01T08:26:08;10.30;99.90
15357;DHT22;7778;48.792;9.260;2023-04-01T08:29:01;10.40;99.90
15357;DHT22;7778;48.792;9.260;2023-04-01T08:31:51;10.30;99.90
15357;DHT22;7778;48.792;9.260;2023-04-01T08:34:44;10.50;99.90
15357;DHT22;7778;48.792;9.260;2023-04-01T08:37:34;10.50;99.90
15357;DHT22;7778;48.792;9.260;2023-04-01T08:40:48;10.50;99.90
15357;DHT22;7778;48.792;9.260;2023-04-01T08:47:40;10.50;99.90
15357;DHT22;7778;48.792;9.260;2023-04-01T08:51:01;10.30;99.90
15357;DHT22;7778;48.792;9.260;2023-04-01T08:54:05;10.10;99.90
15357;DHT22;7778;48.792;9.260;2023-04-01T08:57:04;10.10;99.90
15357;DHT22;7778;48.792;9.260;2023-04-01T09:00:04;10.00;99.90
15357;DHT22;7778;48.792;9.260;2023-04-01T09:06:44;9.80;99.90
15357;DHT22;7778;48.792;9.260;2023-04-01T09:09:48;9.60;99.90
15357;DHT22;7778;48.792;9.260;2023-04-01T09:13:04;9.60;99.90
15357;DHT22;7778;48.792;9.260;2023-04-01T09:16:17;9.60;99.90
15357;DHT22;7778;48.792;9.260;2023-04-01T09:19:33;9.60;99.90
15357;DHT22;7778;48.792;9.260;2023-04-01T09:22:47;9.50;99.90
15357;DHT22;7778;48.792;9.260;2023-04-01T09:25:45;9.70;99.90
15357;DHT22;7778;48.792;9.260;2023-04-01T09:28:42;9.60;99.90
15357;DHT22;7778;48.792;9.260;2023-04-01T09:32:10;9.80;99.90
15357;DHT22;7778;48.792;9.260;2023-04-01T09:35:23;9.80;99.90
15357;DHT22;7778;48.792;9.260;2023-04-01T09:38:22;9.80;99.90
15357;DHT22;7778;48.792;9.260;2023-04-01T09:41:19;10.00;99.90
15357;DHT22;7778;48.792;9.260;2023-04-01T09:44:18;10.20;99.90
15357;DHT22;7778;48.792;9.260;2023-04-01T09:47:21;10.30;99.90
15357;DHT22;7778;48.792;9.260;2023-04-01T09:50:35;10.20;99.90
15357;DHT22;7778;48.792;9.260;2023-04-01T09:53:41;10.00;99.90
15357;DHT22;7778;48.792;9.260;2023-04-01T10:00:39;10.10;99.90
15357;DHT22;7778;48.792;9.260;2023-04-01T10:04:02;10.00;99.90
15357;DHT22;7778;48.792;9.260;2023-04-01T10:07:36;9.90;99.90
15357;DHT22;7778;48.792;9.260;2023-04-01T10:10:58;10.00;99.90
15357;DHT22;7778;48.792;9.260;2023-04-01T10:14:13;10.20;99.90
15357;DHT22;7778;48.792;9.260;2023-04-01T10:17:47;10.30;99.90
15357;DHT22;7778;48.792;9.260;2023-04-01T10:21:02;10.30;99.90
15357;DHT22;7778;48.792;9.260;2023-04-01T10:24:31;10.30;99.90
15357;DHT22;7778;48.792;9.260;2023-04-01T10:27:57;10.40;99.90
15357;DHT22;7778;48.792;9.260;2023-04-01T10:31:24;10.40;99.90
15357;DHT22;7778;48.792;9.260;2023-04-01T10:38:24;10.50;99.90
15357;DHT22;7778;48.792;9.260;2023-04-01T10:41:47;10.60;99.90
15357;DHT22;7778;48.792;9.260;2023-04-01T10:56:05;10.40;99.90
15357;DHT22;7778;48.792;9.260;2023-04-01T10:59:42;10.40;99.90
15357;DHT22;7778;48.792;9.260;2023-04-01T11:03:21;10.60;99.90
15357;DHT22;7778;48.792;9.260;2023-04-01T11:25:57;10.70;99.90
15357;DHT22;7778;48.792;9.260;2023-04-01T11:29:15;10.90;99.90
15357;DHT22;7778;48.792;9.260;2023-04-01T11:32:33;11.10;99.90
15357;DHT22;7778;48.792;9.260;2023-04-01T11:35:57;11.20;99.90
15357;DHT22;7778;48.792;9.260;2023-04-01T11:39:17;11.20;99.90
15357;DHT22;7778;48.792;9.260;2023-04-01T11:42:17;11.30;99.90
15357;DHT22;7778;48.792;9.260;2023-04-01T11:45:16;11.40;99.90
15357;DHT22;7778;48.792;9.260;2023-04-01T11:48:17;11.50;99.90
15357;DHT22;7778;48.792;9.260;2023-04-01T11:51:39;11.30;99.90
15357;DHT22;7778;48.792;9.260;2023-04-01T11:54:55;11.20;99.90
15357;DHT22;7778;48.792;9.260;2023-04-01T11:58:10;11.30;99.90
15357;DHT22;7778;48.792;9.260;2023-04-01T12:01:40;11.20;99.90
15357;DHT22;7778;48.792;9.260;2023-04-01T12:04:42;11.40;99.90
15357;DHT22;7778;48.792;9.260;2023-04-01T12:07:56;11.50;99.90
15357;DHT22;7778;48.792;9.260;2023-04-01T12:10:55;11.40;99.90
15357;DHT22;7778;48.792;9.260;2023-04-01T12:13:49;11.40;99.90
15357;DHT22;7778;48.792;9.260;2023-04-01T12:17:03;10.90;99.90
15357;DHT22;7778;48.792;9.260;2023-04-01T12:19:59;11.00;99.90
15357;DHT22;7778;48.792;9.260;2023-04-01T12:23:24;11.00;99.90
15357;DHT22;7778;48.792;9.260;2023-04-01T12:26:39;11.10;99.90
15357;DHT22;7778;48.792;9.260;2023-04-01T12:29:49;11.30;99.90
15357;DHT22;7778;48.792;9.260;2023-04-01T12:32:47;11.20;99.90
15357;DHT22;7778;48.792;9.260;2023-04-01T12:35:51;11.20;99.90
15357;DHT22;7778;48.792;9.260;2023-04-01T12:38:51;11.00;99.90
15357;DHT22;7778;48.792;9.260;2023-04-01T12:41:54;11.20;99.90
15357;DHT22;7778;48.792;9.260;2023-04-01T12:45:02;11.20;99.90
15357;DHT22;7778;48.792;9.260;2023-04-01T12:51:53;11.20;99.90
15357;DHT22;7778;48.792;9.260;2023-04-01T12:55:06;11.20;99.90
15357;DHT22;7778;48.792;9.260;2023-04-01T12:58:30;11.50;99.90
15357;DHT22;7778;48.792;9.260;2023-04-01T13:01:52;11.20;99.90
15357;DHT22;7778;48.792;9.260;2023-04-01T13:05:01;11.30;99.90
15357;DHT22;7778;48.792;9.260;2023-04-01T13:08:19;11.40;99.90
15357;DHT22;7778;48.792;9.260;2023-04-01T13:11:17;11.50;99.90
15357;DHT22;7778;48.792;9.260;2023-04-01T13:14:33;11.50;99.90
15357;DHT22;7778;48.792;9.260;2023-04-01T13:17:31;11.70;99.90
15357;DHT22;7778;48.792;9.260;2023-04-01T13:20:29;11.60;99.90
15357;DHT22;7778;48.792;9.260;2023-04-01T13:23:31;11.50;99.90
15357;DHT22;7778;48.792;9.260;2023-04-01T13:26:27;11.30;99.90
15357;DHT22;7778;48.792;9.260;2023-04-01T13:29:18;11.40;99.90
15357;DHT22;7778;48.792;9.260;2023-04-01T13:32:18;11.40;99.90
15357;DHT22;7778;48.792;9.260;2023-04-01T13:35:21;11.40;99.90
15357;DHT22;7778;48.792;9.260;2023-04-01T13:38:30;11.50;99.90
15357;DHT22;7778;48.792;9.260;2023-04-01T13:41:35;11.60;99.90
15357;DHT22;7778;48.792;9.260;2023-04-01T13:44:33;11.60;99.90
15357;DHT22;7778;48.792;9.260;2023-04-01T13:47:43;11.70;99.90
15357;DHT22;7778;48.792;9.260;2023-04-01T13:51:08;11.70;99.90
15357;DHT22;7778;48.792;9.260;2023-04-01T13:54:38;11.60;99.90
15357;DHT22;7778;48.792;9.260;2023-04-01T13:57:46;11.50;99.90
15357;DHT22;7778;48.792;9.260;2023-04-01T14:00:55;11.70;99.90
15357;DHT22;7778;48.792;9.260;2023-04-01T14:03:56;11.60;99.90
15357;DHT22;7778;48.792;9.260;2023-04-01T14:07:00;11.70;99.90
15357;DHT22;7778;48.792;9.260;2023-04-01T14:13:12;11.70;99.90
15357;DHT22;7778;48.792;9.260;2023-04-01T14:16:17;11.60;99.90
15357;DHT22;7778;48.792;9.260;2023-04-01T14:19:21;11.70;99.90
15357;DHT22;7778;48.792;9.260;2023-04-01T14:22:20;11.60;99.90
15357;DHT22;7778;48.792;9.260;2023-04-01T14:25:31;11.70;99.90
15357;DHT22;7778;48.792;9.260;2023-04-01T14:28:38;11.60;99.90
15357;DHT22;7778;48.792;9.260;2023-04-01T14:31:59;11.50;99.90
15357;DHT22;7778;48.792;9.260;2023-04-01T14:34:59;11.50;99.90
15357;DHT22;7778;48.792;9.260;2023-04-01T14:38:24;11.30;99.90
15357;DHT22;7778;48.792;9.260;2023-04-01T14:41:19;11.10;99.90
15357;DHT22;7778;48.792;9.260;2023-04-01T14:44:33;11.00;99.90
15357;DHT22;7778;48.792;9.260;2023-04-01T14:47:47;11.20;99.90
15357;DHT22;7778;48.792;9.260;2023-04-01T14:50:44;11.00;99.90
15357;DHT22;7778;48.792;9.260;2023-04-01T14:53:34;11.00;99.90
15357;DHT22;7778;48.792;9.260;2023-04-01T14:56:37;11.00;99.90
15357;DHT22;7778;48.792;9.260;2023-04-01T14:59:28;11.00;99.90
15357;DHT22;7778;48.792;9.260;2023-04-01T15:05:45;10.90;99.90
15357;DHT22;7778;48.792;9.260;2023-04-01T15:08:33;11.10;99.90
15357;DHT22;7778;48.792;9.260;2023-04-01T15:11:28;11.10;99.90
15357;DHT22;7778;48.792;9.260;2023-04-01T15:14:53;11.00;99.90
15357;DHT22;7778;48.792;9.260;2023-04-01T15:17:55;11.00;99.90
15357;DHT22;7778;48.792;9.260;2023-04-01T15:24:07;11.20;99.90
15357;DHT22;7778;48.792;9.260;2023-04-01T15:27:11;11.20;99.90
15357;DHT22;7778;48.792;9.260;2023-04-01T15:30:17;11.20;99.90
15357;DHT22;7778;48.792;9.260;2023-04-01T15:33:20;11.20;99.90
15357;DHT22;7778;48.792;9.260;2023-04-01T15:36:24;11.10;99.90
15357;DHT22;7778;48.792;9.260;2023-04-01T15:39:21;11.00;99.90
15357;DHT22;7778;48.792;9.260;2023-04-01T15:42:26;11.20;99.90
15357;DHT22;7778;48.792;9.260;2023-04-01T15:45:35;11.00;99.90
15357;DHT22;7778;48.792;9.260;2023-04-01T15:48:39;11.40;99.90
15357;DHT22;7778;48.792;9.260;2023-04-01T15:55:01;11.30;99.90
15357;DHT22;7778;48.792;9.260;2023-04-01T15:58:19;11.10;99.90
15357;DHT22;7778;48.792;9.260;2023-04-01T16:01:26;11.10;99.90
15357;DHT22;7778;48.792;9.260;2023-04-01T16:04:36;11.00;99.90
15357;DHT22;7778;48.792;9.260;2023-04-01T16:07:55;11.00;99.90
15357;DHT22;7778;48.792;9.260;2023-04-01T16:10:52;11.10;99.90
15357;DHT22;7778;48.792;9.260;2023-04-01T16:13:52;11.00;99.90
15357;DHT22;7778;48.792;9.260;2023-04-01T16:16:52;10.90;99.90
15357;DHT22;7778;48.792;9.260;2023-04-01T16:19:49;10.90;99.90
15357;DHT22;7778;48.792;9.260;2023-04-01T16:22:40;10.90;99.90
15357;DHT22;7778;48.792;9.260;2023-04-01T16:25:33;10.90;99.90
15357;DHT22;7778;48.792;9.260;2023-04-01T16:28:25;11.00;99.90
15357;DHT22;7778;48.792;9.260;2023-04-01T16:31:23;10.90;99.90
15357;DHT22;7778;48.792;9.260;2023-04-01T16:34:17;10.90;99.90
15357;DHT22;7778;48.792;9.260;2023-04-01T16:37:09;10.80;99.90
15357;DHT22;7778;48.792;9.260;2023-04-01T16:40:10;10.80;99.90
15357;DHT22;7778;48.792;9.260;2023-04-01T16:43:06;10.70;99.90
15357;DHT22;7778;48.792;9.260;2023-04-01T16:46:21;10.70;99.90
15357;DHT22;7778;48.792;9.260;2023-04-01T16:49:24;10.70;99.90
15357;DHT22;7778;48.792;9.260;2023-04-01T16:52:31;10.70;99.90
15357;DHT22;7778;48.792;9.260;2023-04-01T16:55:43;10.70;99.90
15357;DHT22;7778;48.792;9.260;2023-04-01T16:58:35;10.80;99.90
15357;DHT22;7778;48.792;9.260;2023-04-01T17:01:24;10.70;99.90
15357;DHT22;7778;48.792;9.260;2023-04-01T17:04:19;10.80;99.90
15357;DHT22;7778;48.792;9.260;2023-04-01T17:07:20;10.90;99.90
15357;DHT22;7778;48.792;9.260;2023-04-01T17:10:31;10.90;99.90
15357;DHT22;7778;48.792;9.260;2023-04-01T17:13:33;10.80;99.90
15357;DHT22;7778;48.792;9.260;2023-04-01T17:16:32;10.90;99.90
15357;DHT22;7778;48.792;9.260;2023-04-01T17:19:46;10.90;99.90
15357;DHT22;7778;48.792;9.260;2023-04-01T17:22:44;11.00;99.90
15357;DHT22;7778;48.792;9.260;2023-04-01T17:25:42;10.80;99.90
15357;DHT22;7778;48.792;9.260;2023-04-01T17:28:43;10.70;99.90
15357;DHT22;7778;48.792;9.260;2023-04-01T17:31:45;10.70;99.90
15357;DHT22;7778;48.792;9.260;2023-04-01T17:34:51;10.80;99.90
15357;DHT22;7778;48.792;9.260;2023-04-01T17:37:48;10.70;99.90
15357;DHT22;7778;48.792;9.260;2023-04-01T17:40:57;10.90;99.90
15357;DHT22;7778;48.792;9.260;2023-04-01T17:43:50;10.80;99.90
15357;DHT22;7778;48.792;9.260;2023-04-01T17:46:58;10.70;99.90
15357;DHT22;7778;48.792;9.260;2023-04-01T17:49:56;10.80;99.90
15357;DHT22;7778;48.792;9.260;2023-04-01T17:53:01;10.80;99.90
15357;DHT22;7778;48.792;9.260;2023-04-01T17:56:06;10.70;99.90
15357;DHT22;7778;48.792;9.260;2023-04-01T17:59:00;10.70;99.90
15357;DHT22;7778;48.792;9.260;2023-04-01T18:01:56;10.70;99.90
15357;DHT22;7778;48.792;9.260;2023-04-01T18:05:00;10.60;99.90
15357;DHT22;7778;48.792;9.260;2023-04-01T18:08:15;10.60;99.90
15357;DHT22;7778;48.792;9.260;2023-04-01T18:11:11;10.70;99.90
15357;DHT22;7778;48.792;9.260;2023-04-01T18:14:28;10.80;99.90
15357;DHT22;7778;48.792;9.260;2023-04-01T18:17:24;10.80;99.90
15357;DHT22;7778;48.792;9.260;2023-04-01T18:20:33;10.60;99.90
15357;DHT22;7778;48.792;9.260;2023-04-01T18:23:35;10.40;99.90
15357;DHT22;7778;48.792;9.260;2023-04-01T18:26:23;10.40;99.90
15357;DHT22;7778;48.792;9.260;2023-04-01T18:29:24;10.20;99.90
15357;DHT22;7778;48.792;9.260;2023-04-01T18:32:25;10.20;99.90
15357;DHT22;7778;48.792;9.260;2023-04-01T18:35:19;10.30;99.90
15357;DHT22;7778;48.792;9.260;2023-04-01T18:38:13;10.10;99.90
15357;DHT22;7778;48.792;9.260;2023-04-01T18:41:13;10.10;99.90
15357;DHT22;7778;48.792;9.260;2023-04-01T18:44:12;10.10;99.90
15357;DHT22;7778;48.792;9.260;2023-04-01T18:47:14;10.10;99.90
15357;DHT22;7778;48.792;9.260;2023-04-01T18:50:14;10.10;99.90
15357;DHT22;7778;48.792;9.260;2023-04-01T18:53:19;10.10;99.90
15357;DHT22;7778;48.792;9.260;2023-04-01T18:56:11;9.90;99.90
15357;DHT22;7778;48.792;9.260;2023-04-01T18:59:03;9.70;99.90
15357;DHT22;7778;48.792;9.260;2023-04-01T19:01:59;9.60;99.90
15357;DHT22;7778;48.792;9.260;2023-04-01T19:04:55;9.40;99.90
15357;DHT22;7778;48.792;9.260;2023-04-01T19:07:46;9.30;99.90
15357;DHT22;7778;48.792;9.260;2023-04-01T19:10:39;9.20;99.90
15357;DHT22;7778;48.792;9.260;2023-04-01T19:13:33;9.20;99.90
15357;DHT22;7778;48.792;9.260;2023-04-01T19:16:32;9.00;99.90
15357;DHT22;7778;48.792;9.260;2023-04-01T19:19:37;9.10;99.90
15357;DHT22;7778;48.792;9.260;2023-04-01T19:22:44;9.00;99.90
15357;DHT22;7778;48.792;9.260;2023-04-01T19:25:49;9.00;99.90
15357;DHT22;7778;48.792;9.260;2023-04-01T19:28:49;8.80;99.90
15357;DHT22;7778;48.792;9.260;2023-04-01T19:31:47;8.70;99.90
15357;DHT22;7778;48.792;9.260;2023-04-01T19:34:47;8.70;99.90
15357;DHT22;7778;48.792;9.260;2023-04-01T19:37:40;8.70;99.90
15357;DHT22;7778;48.792;9.260;2023-04-01T19:40:41;8.80;99.90
15357;DHT22;7778;48.792;9.260;2023-04-01T19:44:02;8.90;99.90
15357;DHT22;7778;48.792;9.260;2023-04-01T19:46:58;8.90;99.90
15357;DHT22;7778;48.792;9.260;2023-04-01T19:49:57;8.90;99.90
15357;DHT22;7778;48.792;9.260;2023-04-01T19:52:49;8.90;99.90
15357;DHT22;7778;48.792;9.260;2023-04-01T19:55:42;9.00;99.90
15357;DHT22;7778;48.792;9.260;2023-04-01T19:58:34;9.10;99.90
15357;DHT22;7778;48.792;9.260;2023-04-01T20:01:33;9.10;99.90
15357;DHT22;7778;48.792;9.260;2023-04-01T20:04:25;9.10;99.90
15357;DHT22;7778;48.792;9.260;2023-04-01T20:07:18;9.10;99.90
15357;DHT22;7778;48.792;9.260;2023-04-01T20:10:10;9.00;99.90
15357;DHT22;7778;48.792;9.260;2023-04-01T20:13:05;9.20;99.90
15357;DHT22;7778;48.792;9.260;2023-04-01T20:16:00;9.00;99.90
15357;DHT22;7778;48.792;9.260;2023-04-01T20:18:52;9.10;99.90
15357;DHT22;7778;48.792;9.260;2023-04-01T20:21:43;9.10;99.90
15357;DHT22;7778;48.792;9.260;2023-04-01T20:24:34;9.20;99.90